sensor_id;sensor_type;location;lat;lon;timestamp;P1;durP1;ratioP1;P2;durP2;ratioP2
12840;SDS011;6487;48.626;12.486;2022-07-10T00:00:08;4.77;;;3.13;;
12840;SDS011;6487;48.626;12.486;2022-07-10T00:02:39;3.87;;;3.57;;
12840;SDS011;6487;48.626;12.486;2022-07-10T00:05:09;4.50;;;3.30;;
12840;SDS011;6487;48.626;12.486;2022-07-10T00:07:46;3.60;;;3.30;;
12840;SDS011;6487;48.626;12.486;2022-07-10T00:10:15;4.27;;;3.70;;
12840;SDS011;6487;48.626;12.486;2022-07-10T00:12:45;3.40;;;3.10;;
12840;SDS011;6487;48.626;12.486;2022-07-10T00:15:14;13.23;;;3.87;;
12840;SDS011;6487;48.626;12.486;2022-07-10T00:17:44;4.87;;;3.53;;
12840;SDS011;6487;48.626;12.486;2022-07-10T00:20:14;4.10;;;3.57;;
12840;SDS011;6487;48.626;12.486;2022-07-10T00:22:43;3.63;;;3.10;;
12840;SDS011;6487;48.626;12.486;2022-07-10T00:25:13;3.63;;;3.30;;
12840;SDS011;6487;48.626;12.486;2022-07-10T00:27:42;5.07;;;3.50;;
12840;SDS011;6487;48.626;12.486;2022-07-10T00:30:10;3.67;;;3.37;;
12840;SDS011;6487;48.626;12.486;2022-07-10T00:32:40;3.73;;;3.40;;
12840;SDS011;6487;48.626;12.486;2022-07-10T00:35:08;3.60;;;3.30;;
12840;SDS011;6487;48.626;12.486;2022-07-10T00:37:37;4.07;;;3.70;;
12840;SDS011;6487;48.626;12.486;2022-07-10T00:40:06;4.00;;;3.70;;
12840;SDS011;6487;48.626;12.486;2022-07-10T00:42:36;3.77;;;3.47;;
12840;SDS011;6487;48.626;12.486;2022-07-10T00:45:05;3.93;;;3.53;;
12840;SDS011;6487;48.626;12.486;2022-07-10T00:47:35;3.90;;;3.60;;
12840;SDS011;6487;48.626;12.486;2022-07-10T00:50:04;3.73;;;3.43;;
12840;SDS011;6487;48.626;12.486;2022-07-10T00:52:34;4.90;;;4.30;;
12840;SDS011;6487;48.626;12.486;2022-07-10T00:55:05;4.43;;;3.80;;
12840;SDS011;6487;48.626;12.486;2022-07-10T00:57:37;5.00;;;4.10;;
12840;SDS011;6487;48.626;12.486;2022-07-10T01:00:08;3.80;;;3.50;;
12840;SDS011;6487;48.626;12.486;2022-07-10T01:02:39;3.87;;;3.30;;
12840;SDS011;6487;48.626;12.486;2022-07-10T01:05:11;4.37;;;3.67;;
12840;SDS011;6487;48.626;12.486;2022-07-10T01:07:40;3.57;;;3.30;;
12840;SDS011;6487;48.626;12.486;2022-07-10T01:10:08;3.47;;;3.17;;
12840;SDS011;6487;48.626;12.486;2022-07-10T01:12:39;3.87;;;2.90;;
12840;SDS011;6487;48.626;12.486;2022-07-10T01:15:08;4.80;;;3.40;;
12840;SDS011;6487;48.626;12.486;2022-07-10T01:17:37;3.30;;;3.00;;
12840;SDS011;6487;48.626;12.486;2022-07-10T01:20:06;4.07;;;3.30;;
12840;SDS011;6487;48.626;12.486;2022-07-10T01:22:37;4.50;;;3.20;;
12840;SDS011;6487;48.626;12.486;2022-07-10T01:25:06;3.57;;;2.90;;
12840;SDS011;6487;48.626;12.486;2022-07-10T01:27:37;3.23;;;2.93;;
12840;SDS011;6487;48.626;12.486;2022-07-10T01:30:06;4.20;;;3.47;;
12840;SDS011;6487;48.626;12.486;2022-07-10T01:32:36;3.57;;;2.90;;
12840;SDS011;6487;48.626;12.486;2022-07-10T01:35:06;3.17;;;2.87;;
12840;SDS011;6487;48.626;12.486;2022-07-10T01:37:37;3.77;;;3.37;;
12840;SDS011;6487;48.626;12.486;2022-07-10T01:40:06;3.30;;;3.00;;
12840;SDS011;6487;48.626;12.486;2022-07-10T01:42:35;2.93;;;2.73;;
12840;SDS011;6487;48.626;12.486;2022-07-10T01:45:05;3.20;;;2.90;;
12840;SDS011;6487;48.626;12.486;2022-07-10T01:47:34;3.90;;;3.60;;
12840;SDS011;6487;48.626;12.486;2022-07-10T01:50:04;3.67;;;3.20;;
12840;SDS011;6487;48.626;12.486;2022-07-10T01:52:33;4.20;;;3.10;;
12840;SDS011;6487;48.626;12.486;2022-07-10T01:55:03;7.83;;;2.77;;
12840;SDS011;6487;48.626;12.486;2022-07-10T01:57:33;3.90;;;3.50;;
12840;SDS011;6487;48.626;12.486;2022-07-10T02:00:02;2.77;;;2.57;;
12840;SDS011;6487;48.626;12.486;2022-07-10T02:02:32;4.60;;;3.47;;
12840;SDS011;6487;48.626;12.486;2022-07-10T02:05:00;5.10;;;3.13;;
12840;SDS011;6487;48.626;12.486;2022-07-10T02:07:27;3.60;;;3.30;;
12840;SDS011;6487;48.626;12.486;2022-07-10T02:09:56;3.10;;;2.80;;
12840;SDS011;6487;48.626;12.486;2022-07-10T02:12:25;2.70;;;2.50;;
12840;SDS011;6487;48.626;12.486;2022-07-10T02:14:54;3.37;;;2.80;;
12840;SDS011;6487;48.626;12.486;2022-07-10T02:17:25;3.50;;;3.20;;
12840;SDS011;6487;48.626;12.486;2022-07-10T02:19:54;4.93;;;3.40;;
12840;SDS011;6487;48.626;12.486;2022-07-10T02:22:22;7.57;;;3.47;;
12840;SDS011;6487;48.626;12.486;2022-07-10T02:24:50;3.47;;;3.17;;
12840;SDS011;6487;48.626;12.486;2022-07-10T02:27:19;3.20;;;3.00;;
12840;SDS011;6487;48.626;12.486;2022-07-10T02:29:50;3.30;;;3.03;;
12840;SDS011;6487;48.626;12.486;2022-07-10T02:32:19;3.10;;;2.80;;
12840;SDS011;6487;48.626;12.486;2022-07-10T02:34:48;3.33;;;2.83;;
12840;SDS011;6487;48.626;12.486;2022-07-10T02:37:16;3.20;;;2.90;;
12840;SDS011;6487;48.626;12.486;2022-07-10T02:39:45;3.33;;;2.90;;
12840;SDS011;6487;48.626;12.486;2022-07-10T02:42:13;3.20;;;2.77;;
12840;SDS011;6487;48.626;12.486;2022-07-10T02:44:41;3.13;;;2.83;;
12840;SDS011;6487;48.626;12.486;2022-07-10T02:47:11;6.40;;;3.10;;
12840;SDS011;6487;48.626;12.486;2022-07-10T02:49:40;3.80;;;3.20;;
12840;SDS011;6487;48.626;12.486;2022-07-10T02:52:09;5.47;;;3.47;;
12840;SDS011;6487;48.626;12.486;2022-07-10T02:54:38;3.50;;;3.20;;
12840;SDS011;6487;48.626;12.486;2022-07-10T02:57:06;3.20;;;3.00;;
12840;SDS011;6487;48.626;12.486;2022-07-10T02:59:34;4.97;;;3.07;;
12840;SDS011;6487;48.626;12.486;2022-07-10T03:02:03;4.03;;;3.30;;
12840;SDS011;6487;48.626;12.486;2022-07-10T03:04:33;4.43;;;3.53;;
12840;SDS011;6487;48.626;12.486;2022-07-10T03:07:02;3.40;;;3.20;;
12840;SDS011;6487;48.626;12.486;2022-07-10T03:09:31;3.97;;;3.03;;
12840;SDS011;6487;48.626;12.486;2022-07-10T03:12:00;3.60;;;3.30;;
12840;SDS011;6487;48.626;12.486;2022-07-10T03:14:28;3.80;;;3.20;;
12840;SDS011;6487;48.626;12.486;2022-07-10T03:16:56;4.07;;;3.07;;
12840;SDS011;6487;48.626;12.486;2022-07-10T03:19:25;4.60;;;3.33;;
12840;SDS011;6487;48.626;12.486;2022-07-10T03:21:55;4.00;;;3.47;;
12840;SDS011;6487;48.626;12.486;2022-07-10T03:24:23;7.63;;;3.37;;
12840;SDS011;6487;48.626;12.486;2022-07-10T03:26:51;6.87;;;3.20;;
12840;SDS011;6487;48.626;12.486;2022-07-10T03:29:20;5.60;;;3.50;;
12840;SDS011;6487;48.626;12.486;2022-07-10T03:31:48;3.40;;;2.90;;
12840;SDS011;6487;48.626;12.486;2022-07-10T03:34:16;4.10;;;3.80;;
12840;SDS011;6487;48.626;12.486;2022-07-10T03:36:45;4.20;;;3.80;;
12840;SDS011;6487;48.626;12.486;2022-07-10T03:39:14;4.80;;;3.80;;
12840;SDS011;6487;48.626;12.486;2022-07-10T03:41:43;3.83;;;3.53;;
12840;SDS011;6487;48.626;12.486;2022-07-10T03:44:11;4.80;;;4.23;;
12840;SDS011;6487;48.626;12.486;2022-07-10T03:46:40;4.47;;;3.93;;
12840;SDS011;6487;48.626;12.486;2022-07-10T03:49:08;4.77;;;3.90;;
12840;SDS011;6487;48.626;12.486;2022-07-10T03:51:37;5.17;;;4.17;;
12840;SDS011;6487;48.626;12.486;2022-07-10T03:54:05;6.77;;;3.97;;
12840;SDS011;6487;48.626;12.486;2022-07-10T03:56:35;5.57;;;3.97;;
12840;SDS011;6487;48.626;12.486;2022-07-10T03:59:20;5.77;;;3.70;;
12840;SDS011;6487;48.626;12.486;2022-07-10T04:01:48;6.03;;;3.83;;
12840;SDS011;6487;48.626;12.486;2022-07-10T04:04:17;5.80;;;4.20;;
12840;SDS011;6487;48.626;12.486;2022-07-10T04:06:46;3.87;;;3.57;;
12840;SDS011;6487;48.626;12.486;2022-07-10T04:09:14;4.37;;;3.83;;
12840;SDS011;6487;48.626;12.486;2022-07-10T04:11:44;4.10;;;3.70;;
12840;SDS011;6487;48.626;12.486;2022-07-10T04:14:12;6.97;;;4.00;;
12840;SDS011;6487;48.626;12.486;2022-07-10T04:16:41;9.33;;;3.87;;
12840;SDS011;6487;48.626;12.486;2022-07-10T04:19:09;6.60;;;4.03;;
12840;SDS011;6487;48.626;12.486;2022-07-10T04:21:37;4.40;;;4.00;;
12840;SDS011;6487;48.626;12.486;2022-07-10T04:24:06;4.00;;;3.67;;
12840;SDS011;6487;48.626;12.486;2022-07-10T04:26:34;5.70;;;3.90;;
12840;SDS011;6487;48.626;12.486;2022-07-10T04:29:04;6.20;;;4.07;;
12840;SDS011;6487;48.626;12.486;2022-07-10T04:31:32;4.43;;;4.03;;
12840;SDS011;6487;48.626;12.486;2022-07-10T04:34:01;8.43;;;4.17;;
12840;SDS011;6487;48.626;12.486;2022-07-10T04:36:29;5.30;;;3.80;;
12840;SDS011;6487;48.626;12.486;2022-07-10T04:38:57;5.83;;;4.00;;
12840;SDS011;6487;48.626;12.486;2022-07-10T04:41:26;4.30;;;3.70;;
12840;SDS011;6487;48.626;12.486;2022-07-10T04:43:54;3.60;;;3.30;;
12840;SDS011;6487;48.626;12.486;2022-07-10T04:46:24;5.50;;;4.07;;
12840;SDS011;6487;48.626;12.486;2022-07-10T04:48:52;4.60;;;4.20;;
12840;SDS011;6487;48.626;12.486;2022-07-10T04:51:21;4.07;;;3.70;;
12840;SDS011;6487;48.626;12.486;2022-07-10T04:53:49;3.67;;;3.37;;
12840;SDS011;6487;48.626;12.486;2022-07-10T04:56:18;4.23;;;3.90;;
12840;SDS011;6487;48.626;12.486;2022-07-10T04:58:46;3.73;;;3.33;;
12840;SDS011;6487;48.626;12.486;2022-07-10T05:01:18;4.33;;;3.77;;
12840;SDS011;6487;48.626;12.486;2022-07-10T05:03:48;4.87;;;3.57;;
12840;SDS011;6487;48.626;12.486;2022-07-10T05:06:16;4.30;;;3.97;;
12840;SDS011;6487;48.626;12.486;2022-07-10T05:08:45;7.50;;;3.77;;
12840;SDS011;6487;48.626;12.486;2022-07-10T05:11:13;4.07;;;3.50;;
12840;SDS011;6487;48.626;12.486;2022-07-10T05:13:42;3.83;;;3.30;;
12840;SDS011;6487;48.626;12.486;2022-07-10T05:16:12;5.70;;;3.23;;
12840;SDS011;6487;48.626;12.486;2022-07-10T05:18:46;5.60;;;3.30;;
12840;SDS011;6487;48.626;12.486;2022-07-10T05:21:15;4.10;;;3.20;;
12840;SDS011;6487;48.626;12.486;2022-07-10T05:23:44;4.67;;;3.07;;
12840;SDS011;6487;48.626;12.486;2022-07-10T05:26:12;4.77;;;3.50;;
12840;SDS011;6487;48.626;12.486;2022-07-10T05:28:41;3.40;;;3.10;;
12840;SDS011;6487;48.626;12.486;2022-07-10T05:31:09;4.50;;;3.13;;
12840;SDS011;6487;48.626;12.486;2022-07-10T05:33:38;3.03;;;2.73;;
12840;SDS011;6487;48.626;12.486;2022-07-10T05:36:07;3.60;;;2.97;;
12840;SDS011;6487;48.626;12.486;2022-07-10T05:38:36;3.23;;;2.53;;
12840;SDS011;6487;48.626;12.486;2022-07-10T05:41:06;4.03;;;2.93;;
12840;SDS011;6487;48.626;12.486;2022-07-10T05:43:34;5.57;;;2.63;;
12840;SDS011;6487;48.626;12.486;2022-07-10T05:46:03;4.13;;;2.83;;
12840;SDS011;6487;48.626;12.486;2022-07-10T05:48:32;3.77;;;2.27;;
12840;SDS011;6487;48.626;12.486;2022-07-10T05:51:01;3.17;;;2.50;;
12840;SDS011;6487;48.626;12.486;2022-07-10T05:53:51;5.80;;;2.63;;
12840;SDS011;6487;48.626;12.486;2022-07-10T05:56:19;2.67;;;2.47;;
12840;SDS011;6487;48.626;12.486;2022-07-10T05:58:47;4.87;;;2.97;;
12840;SDS011;6487;48.626;12.486;2022-07-10T06:01:16;3.63;;;2.27;;
12840;SDS011;6487;48.626;12.486;2022-07-10T06:03:45;3.77;;;2.50;;
12840;SDS011;6487;48.626;12.486;2022-07-10T06:06:13;3.57;;;2.33;;
12840;SDS011;6487;48.626;12.486;2022-07-10T06:08:42;2.37;;;2.13;;
12840;SDS011;6487;48.626;12.486;2022-07-10T06:11:12;2.70;;;2.20;;
12840;SDS011;6487;48.626;12.486;2022-07-10T06:13:42;3.10;;;2.60;;
12840;SDS011;6487;48.626;12.486;2022-07-10T06:16:10;3.50;;;2.00;;
12840;SDS011;6487;48.626;12.486;2022-07-10T06:18:39;3.10;;;2.33;;
12840;SDS011;6487;48.626;12.486;2022-07-10T06:21:08;3.60;;;2.17;;
12840;SDS011;6487;48.626;12.486;2022-07-10T06:23:37;2.80;;;2.30;;
12840;SDS011;6487;48.626;12.486;2022-07-10T06:26:05;5.53;;;2.40;;
12840;SDS011;6487;48.626;12.486;2022-07-10T06:28:35;2.03;;;1.87;;
12840;SDS011;6487;48.626;12.486;2022-07-10T06:31:04;7.40;;;2.60;;
12840;SDS011;6487;48.626;12.486;2022-07-10T06:33:32;2.53;;;2.10;;
12840;SDS011;6487;48.626;12.486;2022-07-10T06:36:02;2.30;;;2.10;;
12840;SDS011;6487;48.626;12.486;2022-07-10T06:38:32;4.37;;;2.00;;
12840;SDS011;6487;48.626;12.486;2022-07-10T06:41:00;2.53;;;2.33;;
12840;SDS011;6487;48.626;12.486;2022-07-10T06:43:29;3.37;;;2.03;;
12840;SDS011;6487;48.626;12.486;2022-07-10T06:45:58;3.43;;;2.50;;
12840;SDS011;6487;48.626;12.486;2022-07-10T06:48:27;2.80;;;2.10;;
12840;SDS011;6487;48.626;12.486;2022-07-10T06:50:54;5.23;;;2.23;;
12840;SDS011;6487;48.626;12.486;2022-07-10T06:53:23;2.30;;;2.10;;
12840;SDS011;6487;48.626;12.486;2022-07-10T06:55:53;6.60;;;2.30;;
12840;SDS011;6487;48.626;12.486;2022-07-10T06:58:22;4.87;;;2.30;;
12840;SDS011;6487;48.626;12.486;2022-07-10T07:00:50;3.23;;;2.13;;
12840;SDS011;6487;48.626;12.486;2022-07-10T07:03:20;2.67;;;2.13;;
12840;SDS011;6487;48.626;12.486;2022-07-10T07:05:48;3.23;;;2.30;;
12840;SDS011;6487;48.626;12.486;2022-07-10T07:08:17;3.23;;;1.70;;
12840;SDS011;6487;48.626;12.486;2022-07-10T07:10:45;2.20;;;2.00;;
12840;SDS011;6487;48.626;12.486;2022-07-10T07:13:13;4.43;;;2.13;;
12840;SDS011;6487;48.626;12.486;2022-07-10T07:15:42;2.67;;;2.13;;
12840;SDS011;6487;48.626;12.486;2022-07-10T07:18:17;2.47;;;2.23;;
12840;SDS011;6487;48.626;12.486;2022-07-10T07:20:49;2.30;;;2.07;;
12840;SDS011;6487;48.626;12.486;2022-07-10T07:23:35;2.77;;;2.10;;
12840;SDS011;6487;48.626;12.486;2022-07-10T07:26:03;3.97;;;2.17;;
12840;SDS011;6487;48.626;12.486;2022-07-10T07:28:31;2.57;;;2.10;;
12840;SDS011;6487;48.626;12.486;2022-07-10T07:31:00;3.93;;;2.00;;
12840;SDS011;6487;48.626;12.486;2022-07-10T07:33:28;2.70;;;2.00;;
12840;SDS011;6487;48.626;12.486;2022-07-10T07:35:58;3.07;;;2.20;;
12840;SDS011;6487;48.626;12.486;2022-07-10T07:38:26;2.73;;;2.10;;
12840;SDS011;6487;48.626;12.486;2022-07-10T07:40:55;2.47;;;1.87;;
12840;SDS011;6487;48.626;12.486;2022-07-10T07:43:23;3.43;;;1.80;;
12840;SDS011;6487;48.626;12.486;2022-07-10T07:45:51;4.37;;;2.17;;
12840;SDS011;6487;48.626;12.486;2022-07-10T07:48:20;3.50;;;2.03;;
12840;SDS011;6487;48.626;12.486;2022-07-10T07:50:48;4.43;;;2.30;;
12840;SDS011;6487;48.626;12.486;2022-07-10T07:53:18;4.53;;;2.20;;
12840;SDS011;6487;48.626;12.486;2022-07-10T07:55:46;2.60;;;1.53;;
12840;SDS011;6487;48.626;12.486;2022-07-10T07:58:14;2.10;;;1.87;;
12840;SDS011;6487;48.626;12.486;2022-07-10T08:00:43;3.43;;;1.57;;
12840;SDS011;6487;48.626;12.486;2022-07-10T08:03:11;3.10;;;1.90;;
12840;SDS011;6487;48.626;12.486;2022-07-10T08:05:40;3.93;;;1.70;;
12840;SDS011;6487;48.626;12.486;2022-07-10T08:08:08;4.63;;;1.73;;
12840;SDS011;6487;48.626;12.486;2022-07-10T08:10:38;5.13;;;1.77;;
12840;SDS011;6487;48.626;12.486;2022-07-10T08:13:10;3.67;;;1.90;;
12840;SDS011;6487;48.626;12.486;2022-07-10T08:15:39;4.93;;;1.60;;
12840;SDS011;6487;48.626;12.486;2022-07-10T08:18:07;3.60;;;1.50;;
12840;SDS011;6487;48.626;12.486;2022-07-10T08:20:36;4.80;;;1.97;;
12840;SDS011;6487;48.626;12.486;2022-07-10T08:23:04;5.17;;;1.77;;
12840;SDS011;6487;48.626;12.486;2022-07-10T08:25:32;4.33;;;2.00;;
12840;SDS011;6487;48.626;12.486;2022-07-10T08:28:03;5.10;;;1.80;;
12840;SDS011;6487;48.626;12.486;2022-07-10T08:30:33;3.80;;;1.73;;
12840;SDS011;6487;48.626;12.486;2022-07-10T08:33:01;5.63;;;1.80;;
12840;SDS011;6487;48.626;12.486;2022-07-10T08:35:30;6.30;;;1.83;;
12840;SDS011;6487;48.626;12.486;2022-07-10T08:37:58;4.57;;;1.80;;
12840;SDS011;6487;48.626;12.486;2022-07-10T08:40:29;3.63;;;1.63;;
12840;SDS011;6487;48.626;12.486;2022-07-10T08:43:04;5.57;;;2.13;;
12840;SDS011;6487;48.626;12.486;2022-07-10T08:45:33;4.17;;;2.00;;
12840;SDS011;6487;48.626;12.486;2022-07-10T08:48:03;3.30;;;1.70;;
12840;SDS011;6487;48.626;12.486;2022-07-10T08:50:34;3.07;;;1.63;;
12840;SDS011;6487;48.626;12.486;2022-07-10T08:53:08;5.00;;;2.23;;
12840;SDS011;6487;48.626;12.486;2022-07-10T08:55:40;2.47;;;1.50;;
12840;SDS011;6487;48.626;12.486;2022-07-10T08:58:10;2.93;;;1.57;;
12840;SDS011;6487;48.626;12.486;2022-07-10T09:00:40;3.33;;;1.87;;
12840;SDS011;6487;48.626;12.486;2022-07-10T09:03:08;5.70;;;2.00;;
12840;SDS011;6487;48.626;12.486;2022-07-10T09:05:37;3.93;;;1.30;;
12840;SDS011;6487;48.626;12.486;2022-07-10T09:08:18;3.20;;;1.50;;
12840;SDS011;6487;48.626;12.486;2022-07-10T09:10:49;2.90;;;2.00;;
12840;SDS011;6487;48.626;12.486;2022-07-10T09:13:19;4.23;;;1.53;;
12840;SDS011;6487;48.626;12.486;2022-07-10T09:15:50;3.53;;;1.80;;
12840;SDS011;6487;48.626;12.486;2022-07-10T09:18:22;3.57;;;1.70;;
12840;SDS011;6487;48.626;12.486;2022-07-10T09:20:52;4.80;;;1.70;;
12840;SDS011;6487;48.626;12.486;2022-07-10T09:23:21;3.20;;;1.40;;
12840;SDS011;6487;48.626;12.486;2022-07-10T09:25:52;3.47;;;1.63;;
12840;SDS011;6487;48.626;12.486;2022-07-10T09:28:22;3.47;;;1.73;;
12840;SDS011;6487;48.626;12.486;2022-07-10T09:30:50;2.67;;;1.47;;
12840;SDS011;6487;48.626;12.486;2022-07-10T09:33:20;1.60;;;1.10;;
12840;SDS011;6487;48.626;12.486;2022-07-10T09:36:00;2.40;;;1.30;;
12840;SDS011;6487;48.626;12.486;2022-07-10T09:38:52;2.77;;;1.30;;
12840;SDS011;6487;48.626;12.486;2022-07-10T09:41:24;4.43;;;1.40;;
12840;SDS011;6487;48.626;12.486;2022-07-10T09:43:56;3.73;;;1.40;;
12840;SDS011;6487;48.626;12.486;2022-07-10T09:46:27;2.87;;;1.50;;
12840;SDS011;6487;48.626;12.486;2022-07-10T09:49:03;2.93;;;1.50;;
12840;SDS011;6487;48.626;12.486;2022-07-10T09:51:34;3.53;;;1.20;;
12840;SDS011;6487;48.626;12.486;2022-07-10T09:54:13;4.30;;;1.20;;
12840;SDS011;6487;48.626;12.486;2022-07-10T09:56:42;3.60;;;1.60;;
12840;SDS011;6487;48.626;12.486;2022-07-10T09:59:14;3.00;;;1.40;;
12840;SDS011;6487;48.626;12.486;2022-07-10T10:01:44;3.30;;;1.30;;
12840;SDS011;6487;48.626;12.486;2022-07-10T10:04:15;1.80;;;1.27;;
12840;SDS011;6487;48.626;12.486;2022-07-10T10:06:45;2.47;;;1.20;;
12840;SDS011;6487;48.626;12.486;2022-07-10T10:09:20;2.40;;;1.10;;
12840;SDS011;6487;48.626;12.486;2022-07-10T10:11:54;2.83;;;1.40;;
12840;SDS011;6487;48.626;12.486;2022-07-10T10:14:30;2.20;;;1.30;;
12840;SDS011;6487;48.626;12.486;2022-07-10T10:17:01;2.87;;;1.17;;
12840;SDS011;6487;48.626;12.486;2022-07-10T10:19:32;1.83;;;1.10;;
12840;SDS011;6487;48.626;12.486;2022-07-10T10:22:19;2.67;;;1.30;;
12840;SDS011;6487;48.626;12.486;2022-07-10T10:24:50;2.43;;;1.20;;
12840;SDS011;6487;48.626;12.486;2022-07-10T10:27:19;1.87;;;1.00;;
12840;SDS011;6487;48.626;12.486;2022-07-10T10:29:51;2.10;;;1.20;;
12840;SDS011;6487;48.626;12.486;2022-07-10T10:32:20;2.63;;;1.10;;
12840;SDS011;6487;48.626;12.486;2022-07-10T10:34:49;2.07;;;1.03;;
12840;SDS011;6487;48.626;12.486;2022-07-10T10:37:33;3.03;;;1.30;;
12840;SDS011;6487;48.626;12.486;2022-07-10T10:40:06;4.43;;;1.23;;
12840;SDS011;6487;48.626;12.486;2022-07-10T10:43:14;2.93;;;1.37;;
12840;SDS011;6487;48.626;12.486;2022-07-10T10:45:47;2.63;;;1.20;;
12840;SDS011;6487;48.626;12.486;2022-07-10T10:48:19;3.20;;;1.20;;
12840;SDS011;6487;48.626;12.486;2022-07-10T10:51:09;2.93;;;1.00;;
12840;SDS011;6487;48.626;12.486;2022-07-10T10:53:41;3.57;;;0.87;;
12840;SDS011;6487;48.626;12.486;2022-07-10T10:56:22;3.60;;;1.00;;
12840;SDS011;6487;48.626;12.486;2022-07-10T10:58:53;2.90;;;1.03;;
12840;SDS011;6487;48.626;12.486;2022-07-10T11:01:26;2.23;;;1.13;;
12840;SDS011;6487;48.626;12.486;2022-07-10T11:04:15;2.00;;;1.03;;
12840;SDS011;6487;48.626;12.486;2022-07-10T11:06:48;1.77;;;0.73;;
12840;SDS011;6487;48.626;12.486;2022-07-10T11:09:21;2.57;;;1.10;;
12840;SDS011;6487;48.626;12.486;2022-07-10T11:11:58;4.07;;;1.00;;
12840;SDS011;6487;48.626;12.486;2022-07-10T11:14:32;3.63;;;1.17;;
12840;SDS011;6487;48.626;12.486;2022-07-10T11:17:06;2.13;;;1.00;;
12840;SDS011;6487;48.626;12.486;2022-07-10T11:19:35;2.00;;;1.10;;
12840;SDS011;6487;48.626;12.486;2022-07-10T11:22:23;2.00;;;0.80;;
12840;SDS011;6487;48.626;12.486;2022-07-10T11:25:19;2.90;;;1.00;;
12840;SDS011;6487;48.626;12.486;2022-07-10T11:28:08;1.83;;;1.10;;
12840;SDS011;6487;48.626;12.486;2022-07-10T11:30:46;1.90;;;0.90;;
12840;SDS011;6487;48.626;12.486;2022-07-10T11:33:20;2.40;;;0.90;;
12840;SDS011;6487;48.626;12.486;2022-07-10T11:35:50;2.77;;;0.90;;
12840;SDS011;6487;48.626;12.486;2022-07-10T11:38:20;3.03;;;0.80;;
12840;SDS011;6487;48.626;12.486;2022-07-10T11:40:50;2.30;;;0.97;;
12840;SDS011;6487;48.626;12.486;2022-07-10T11:43:20;1.40;;;0.73;;
12840;SDS011;6487;48.626;12.486;2022-07-10T11:45:51;5.77;;;1.20;;
12840;SDS011;6487;48.626;12.486;2022-07-10T11:48:22;2.80;;;1.07;;
12840;SDS011;6487;48.626;12.486;2022-07-10T11:50:50;2.53;;;0.90;;
12840;SDS011;6487;48.626;12.486;2022-07-10T11:53:23;3.00;;;0.90;;
12840;SDS011;6487;48.626;12.486;2022-07-10T11:55:52;3.53;;;1.10;;
12840;SDS011;6487;48.626;12.486;2022-07-10T11:58:21;1.60;;;0.97;;
12840;SDS011;6487;48.626;12.486;2022-07-10T12:00:59;2.17;;;1.20;;
12840;SDS011;6487;48.626;12.486;2022-07-10T12:03:34;2.27;;;0.90;;
12840;SDS011;6487;48.626;12.486;2022-07-10T12:06:03;1.83;;;0.80;;
12840;SDS011;6487;48.626;12.486;2022-07-10T12:08:42;1.53;;;0.83;;
12840;SDS011;6487;48.626;12.486;2022-07-10T12:11:12;2.40;;;1.20;;
12840;SDS011;6487;48.626;12.486;2022-07-10T12:13:42;1.93;;;1.00;;
12840;SDS011;6487;48.626;12.486;2022-07-10T12:16:11;4.40;;;0.73;;
12840;SDS011;6487;48.626;12.486;2022-07-10T12:18:41;7.30;;;1.00;;
12840;SDS011;6487;48.626;12.486;2022-07-10T12:21:12;1.57;;;0.80;;
12840;SDS011;6487;48.626;12.486;2022-07-10T12:23:42;2.30;;;1.00;;
12840;SDS011;6487;48.626;12.486;2022-07-10T12:26:12;2.80;;;0.90;;
12840;SDS011;6487;48.626;12.486;2022-07-10T12:28:48;1.67;;;0.90;;
12840;SDS011;6487;48.626;12.486;2022-07-10T12:31:24;0.90;;;0.77;;
12840;SDS011;6487;48.626;12.486;2022-07-10T12:33:57;1.60;;;0.80;;
12840;SDS011;6487;48.626;12.486;2022-07-10T12:36:42;1.40;;;0.90;;
12840;SDS011;6487;48.626;12.486;2022-07-10T12:39:12;2.83;;;0.80;;
12840;SDS011;6487;48.626;12.486;2022-07-10T12:41:55;2.33;;;0.80;;
12840;SDS011;6487;48.626;12.486;2022-07-10T12:44:34;1.67;;;0.80;;
12840;SDS011;6487;48.626;12.486;2022-07-10T12:47:05;3.67;;;1.10;;
12840;SDS011;6487;48.626;12.486;2022-07-10T12:49:49;6.33;;;1.10;;
12840;SDS011;6487;48.626;12.486;2022-07-10T12:52:20;3.70;;;0.93;;
12840;SDS011;6487;48.626;12.486;2022-07-10T12:55:06;1.70;;;0.97;;
12840;SDS011;6487;48.626;12.486;2022-07-10T12:57:47;1.53;;;0.80;;
12840;SDS011;6487;48.626;12.486;2022-07-10T13:00:18;1.03;;;0.73;;
12840;SDS011;6487;48.626;12.486;2022-07-10T13:02:48;0.83;;;0.60;;
12840;SDS011;6487;48.626;12.486;2022-07-10T13:05:26;2.57;;;0.80;;
12840;SDS011;6487;48.626;12.486;2022-07-10T13:08:06;2.93;;;0.97;;
12840;SDS011;6487;48.626;12.486;2022-07-10T13:10:38;1.73;;;0.87;;
12840;SDS011;6487;48.626;12.486;2022-07-10T13:13:07;1.93;;;0.90;;
12840;SDS011;6487;48.626;12.486;2022-07-10T13:15:36;2.60;;;0.93;;
12840;SDS011;6487;48.626;12.486;2022-07-10T13:18:07;1.73;;;0.70;;
12840;SDS011;6487;48.626;12.486;2022-07-10T13:20:37;2.07;;;0.90;;
12840;SDS011;6487;48.626;12.486;2022-07-10T13:23:05;2.20;;;0.93;;
12840;SDS011;6487;48.626;12.486;2022-07-10T13:25:34;3.53;;;0.90;;
12840;SDS011;6487;48.626;12.486;2022-07-10T13:28:04;2.37;;;0.90;;
12840;SDS011;6487;48.626;12.486;2022-07-10T13:30:33;4.90;;;1.00;;
12840;SDS011;6487;48.626;12.486;2022-07-10T13:33:01;2.73;;;0.73;;
12840;SDS011;6487;48.626;12.486;2022-07-10T13:35:30;1.23;;;0.63;;
12840;SDS011;6487;48.626;12.486;2022-07-10T13:38:01;1.10;;;0.70;;
12840;SDS011;6487;48.626;12.486;2022-07-10T13:40:31;2.67;;;1.00;;
12840;SDS011;6487;48.626;12.486;2022-07-10T13:43:02;2.17;;;0.70;;
12840;SDS011;6487;48.626;12.486;2022-07-10T13:45:34;2.10;;;0.77;;
12840;SDS011;6487;48.626;12.486;2022-07-10T13:48:09;2.27;;;0.67;;
12840;SDS011;6487;48.626;12.486;2022-07-10T13:50:38;1.43;;;0.80;;
12840;SDS011;6487;48.626;12.486;2022-07-10T13:53:08;2.00;;;0.70;;
12840;SDS011;6487;48.626;12.486;2022-07-10T13:55:37;1.30;;;0.60;;
12840;SDS011;6487;48.626;12.486;2022-07-10T13:58:06;0.97;;;0.47;;
12840;SDS011;6487;48.626;12.486;2022-07-10T14:00:35;1.43;;;0.60;;
12840;SDS011;6487;48.626;12.486;2022-07-10T14:03:04;1.77;;;0.77;;
12840;SDS011;6487;48.626;12.486;2022-07-10T14:05:33;2.23;;;0.80;;
12840;SDS011;6487;48.626;12.486;2022-07-10T14:08:02;1.97;;;0.57;;
12840;SDS011;6487;48.626;12.486;2022-07-10T14:10:32;1.67;;;0.60;;
12840;SDS011;6487;48.626;12.486;2022-07-10T14:13:01;1.30;;;0.60;;
12840;SDS011;6487;48.626;12.486;2022-07-10T14:15:37;0.60;;;0.50;;
12840;SDS011;6487;48.626;12.486;2022-07-10T14:18:07;2.50;;;0.70;;
12840;SDS011;6487;48.626;12.486;2022-07-10T14:20:36;1.30;;;0.77;;
12840;SDS011;6487;48.626;12.486;2022-07-10T14:23:18;1.40;;;0.60;;
12840;SDS011;6487;48.626;12.486;2022-07-10T14:25:48;1.40;;;0.90;;
12840;SDS011;6487;48.626;12.486;2022-07-10T14:28:17;1.80;;;0.70;;
12840;SDS011;6487;48.626;12.486;2022-07-10T14:30:45;1.17;;;0.87;;
12840;SDS011;6487;48.626;12.486;2022-07-10T14:33:17;0.67;;;0.50;;
12840;SDS011;6487;48.626;12.486;2022-07-10T14:35:49;1.07;;;0.67;;
12840;SDS011;6487;48.626;12.486;2022-07-10T14:38:18;1.50;;;0.60;;
12840;SDS011;6487;48.626;12.486;2022-07-10T14:40:47;1.80;;;0.60;;
12840;SDS011;6487;48.626;12.486;2022-07-10T14:43:17;0.97;;;0.77;;
12840;SDS011;6487;48.626;12.486;2022-07-10T14:45:46;2.67;;;0.90;;
12840;SDS011;6487;48.626;12.486;2022-07-10T14:48:25;2.37;;;1.20;;
12840;SDS011;6487;48.626;12.486;2022-07-10T14:50:54;1.90;;;0.60;;
12840;SDS011;6487;48.626;12.486;2022-07-10T14:53:24;2.17;;;1.00;;
12840;SDS011;6487;48.626;12.486;2022-07-10T14:55:54;2.80;;;2.17;;
12840;SDS011;6487;48.626;12.486;2022-07-10T14:58:22;1.63;;;1.30;;
12840;SDS011;6487;48.626;12.486;2022-07-10T15:00:51;0.73;;;0.70;;
12840;SDS011;6487;48.626;12.486;2022-07-10T15:03:20;1.27;;;0.50;;
12840;SDS011;6487;48.626;12.486;2022-07-10T15:05:49;0.50;;;0.40;;
12840;SDS011;6487;48.626;12.486;2022-07-10T15:08:19;2.60;;;0.70;;